Time;durP1;ratioP1;P1;durP2;ratioP2;P2;SDS_P1;SDS_P2;PMS_P1;PMS_P2;Temp;Humidity;BMP_temperature;BMP_pressure;BME280_temperature;BME280_humidity;BME280_pressure;Samples;Min_cycle;Max_cycle;Signal;HPM_P1;HPM_P2
2021/12/15 00:00:15;;;;;;;73.88;51.63;;;0.90;99.90;;;;;;4183304;28;20448;-52
2021/12/15 00:02:20;;;;;;;76.03;50.53;;;0.80;99.90;;;;;;4191573;28;20082;-52
2021/12/15 00:04:23;;;;;;;72.82;50.20;;;0.70;99.90;;;;;;4194034;28;20041;-53
2021/12/15 00:06:25;;;;;;;63.05;44.95;;;0.60;99.90;;;;;;4192594;28;20831;-53
2021/12/15 00:08:27;;;;;;;63.92;43.28;;;0.40;99.90;;;;;;4193884;28;20535;-53
2021/12/15 00:10:30;;;;;;;49.55;41.10;;;0.40;99.90;;;;;;4191955;28;20036;-52
2021/12/15 00:12:32;;;;;;;43.53;38.60;;;0.30;99.90;;;;;;4193291;28;20102;-52
2021/12/15 00:14:35;;;;;;;41.58;37.13;;;0.20;99.90;;;;;;4191448;28;20056;-54
2021/12/15 00:16:38;;;;;;;42.95;38.72;;;0.10;99.90;;;;;;4194298;28;20094;-53
2021/12/15 00:18:42;;;;;;;39.70;35.83;;;0.00;99.90;;;;;;4191824;28;20032;-52
2021/12/15 00:20:44;;;;;;;43.92;39.88;;;0.00;99.90;;;;;;4193651;28;20036;-53
2021/12/15 00:22:52;;;;;;;46.08;41.60;;;0.00;99.90;;;;;;4193556;28;20048;-52
2021/12/15 00:24:54;;;;;;;58.38;52.03;;;0.00;99.90;;;;;;4194626;28;20409;-53
2021/12/15 00:26:57;;;;;;;54.00;48.13;;;0.00;99.90;;;;;;4193466;28;20036;-52
2021/12/15 00:28:59;;;;;;;51.00;45.90;;;0.10;99.90;;;;;;4189539;28;20087;-52
2021/12/15 00:31:02;;;;;;;46.83;41.05;;;0.10;99.90;;;;;;4189802;28;20404;-51
2021/12/15 00:33:06;;;;;;;46.08;41.17;;;0.10;99.90;;;;;;4193000;28;20455;-52
2021/12/15 00:35:09;;;;;;;53.53;43.45;;;0.00;99.90;;;;;;4194475;28;20032;-53
2021/12/15 00:37:11;;;;;;;41.13;35.33;;;-0.10;99.90;;;;;;4192176;28;20048;-53
2021/12/15 00:39:18;;;;;;;45.28;36.75;;;-0.10;99.90;;;;;;4193265;28;20045;-53
2021/12/15 00:41:20;;;;;;;32.42;28.92;;;0.00;99.90;;;;;;4195413;28;20040;-52
2021/12/15 00:43:23;;;;;;;37.33;30.77;;;0.10;99.90;;;;;;4191958;28;20656;-52
2021/12/15 00:45:25;;;;;;;;;;;0.20;99.90;;;;;;4194875;28;20040;-52
2021/12/15 00:47:28;;;;;;;26.02;22.58;;;0.20;99.90;;;;;;4192255;28;19924;-52
2021/12/15 00:49:30;;;;;;;24.92;22.63;;;0.30;99.90;;;;;;4192296;28;20040;-52
2021/12/15 00:51:33;;;;;;;;;;;0.30;99.90;;;;;;4193761;28;20547;-53
2021/12/15 00:53:35;;;;;;;24.80;22.63;;;0.40;99.90;;;;;;4192930;28;20388;-53
2021/12/15 00:55:38;;;;;;;23.63;21.52;;;0.30;99.90;;;;;;4191518;28;20033;-53
2021/12/15 00:57:41;;;;;;;29.60;27.17;;;0.50;99.90;;;;;;4191727;28;20106;-53
2021/12/15 00:59:43;;;;;;;33.80;30.88;;;0.50;99.90;;;;;;4192979;28;20103;-53
2021/12/15 01:01:46;;;;;;;32.55;29.55;;;0.50;99.90;;;;;;4194649;28;20033;-52
2021/12/15 01:03:48;;;;;;;30.70;27.63;;;0.60;99.90;;;;;;4192026;28;20045;-53
2021/12/15 01:05:55;;;;;;;31.13;27.67;;;0.50;99.90;;;;;;4185088;28;20045;-53
2021/12/15 01:07:58;;;;;;;31.38;28.17;;;0.40;99.90;;;;;;4184420;28;20763;-53
2021/12/15 01:10:00;;;;;;;39.03;34.95;;;0.30;99.90;;;;;;4193327;28;20047;-53
2021/12/15 01:21:11;;;;;;;42.03;37.50;;;-0.10;99.90;;;;;;4192668;28;20094;-53
2021/12/15 01:23:17;;;;;;;46.75;36.15;;;-0.10;99.90;;;;;;4193713;28;20037;-53
2021/12/15 01:25:47;;;;;;;35.33;31.63;;;-0.10;99.90;;;;;;4192724;28;20044;-53
2021/12/15 01:27:51;;;;;;;35.80;31.95;;;0.10;99.90;;;;;;4181815;28;20099;-53
2021/12/15 01:29:53;;;;;;;40.28;36.05;;;0.10;99.90;;;;;;4192966;28;20036;-52
2021/12/15 01:31:56;;;;;;;42.85;38.42;;;0.00;99.90;;;;;;4193734;28;20565;-53
2021/12/15 01:33:58;;;;;;;44.22;39.92;;;-0.20;99.90;;;;;;4191537;28;20037;-53
2021/12/15 01:36:02;;;;;;;46.03;42.13;;;-0.20;99.90;;;;;;4193435;28;20051;-52
2021/12/15 01:38:05;;;;;;;45.28;41.50;;;-0.40;99.90;;;;;;4193491;28;20545;-53
2021/12/15 01:40:14;;;;;;;45.03;41.60;;;-0.30;99.90;;;;;;4189997;28;20044;-53
2021/12/15 01:42:16;;;;;;;41.38;37.95;;;-0.10;99.90;;;;;;4192570;28;20048;-54
2021/12/15 01:49:00;;;;;;;33.55;30.25;;;0.00;99.90;;;;;;4178231;28;20076;-53
2021/12/15 01:51:04;;;;;;;29.52;26.70;;;-0.10;99.90;;;;;;4189045;28;20090;-52
2021/12/15 01:53:08;;;;;;;27.85;25.33;;;-0.10;99.90;;;;;;4183503;28;20048;-52
2021/12/15 01:55:13;;;;;;;23.10;21.38;;;0.00;99.90;;;;;;4193776;28;20040;-53
2021/12/15 01:57:17;;;;;;;24.77;22.65;;;0.10;99.90;;;;;;4189122;28;20040;-52
2021/12/15 01:59:21;;;;;;;25.05;22.98;;;0.20;99.90;;;;;;4195937;28;20094;-53
2021/12/15 02:01:24;;;;;;;27.65;25.15;;;0.10;99.90;;;;;;4195246;28;20037;-53
2021/12/15 02:03:27;;;;;;;;;;;0.10;99.90;;;;;;4195507;28;20589;-52
2021/12/15 02:05:34;;;;;;;15.13;14.38;;;0.10;99.90;;;;;;4196148;28;19928;-53
2021/12/15 02:07:37;;;;;;;13.93;13.15;;;0.10;99.90;;;;;;4191820;28;20041;-53
2021/12/15 02:11:44;;;;;;;22.85;20.90;;;0.30;99.90;;;;;;4194057;28;20091;-53
2021/12/15 02:13:46;;;;;;;35.10;30.52;;;0.10;99.90;;;;;;4196140;28;20033;-52
2021/12/15 02:15:54;;;;;;;46.97;40.25;;;0.00;99.90;;;;;;4195430;28;20036;-53
2021/12/15 02:17:58;;;;;;;46.78;42.92;;;-0.20;99.90;;;;;;4194915;28;20040;-52
2021/12/15 02:20:00;;;;;;;52.42;47.45;;;-0.40;99.90;;;;;;4196788;28;20044;-53
2021/12/15 02:22:03;;;;;;;51.33;46.00;;;-0.60;99.90;;;;;;4195813;28;20047;-53
2021/12/15 02:24:05;;;;;;;51.40;46.65;;;-0.80;99.90;;;;;;4194395;28;20566;-52
2021/12/15 02:26:13;;;;;;;57.58;51.67;;;-0.80;99.90;;;;;;4195939;28;20049;-52
2021/12/15 02:28:16;;;;;;;47.00;43.10;;;-0.70;99.90;;;;;;4195774;28;20044;-52
2021/12/15 02:30:38;;;;;;;46.85;42.88;;;-0.60;99.90;;;;;;4196110;28;20044;-53
2021/12/15 02:32:59;;;;;;;47.53;43.87;;;-0.50;99.90;;;;;;4195656;28;20081;-52
2021/12/15 02:37:23;;;;;;;54.42;47.78;;;-0.40;99.90;;;;;;4195503;28;20045;-52
2021/12/15 02:39:25;;;;;;;;;;;-0.50;99.90;;;;;;4195777;28;20038;-53
2021/12/15 02:41:30;;;;;;;42.97;38.47;;;-0.60;99.90;;;;;;4195692;28;19924;-54
2021/12/15 02:43:32;;;;;;;49.60;44.83;;;-0.50;99.90;;;;;;4196182;28;20094;-52
2021/12/15 02:45:36;;;;;;;47.75;44.15;;;-0.50;99.90;;;;;;4191062;28;20489;-53
2021/12/15 02:47:38;;;;;;;48.45;44.60;;;-0.50;99.90;;;;;;4187967;28;20665;-51
2021/12/15 02:49:41;;;;;;;47.13;43.35;;;-0.50;99.90;;;;;;4194584;28;20385;-52
2021/12/15 02:51:44;;;;;;;;;;;-0.50;99.90;;;;;;4189094;28;20099;-53
2021/12/15 02:53:46;;;;;;;21.70;20.60;;;-0.40;99.90;;;;;;4194825;28;19962;-52
2021/12/15 02:55:49;;;;;;;32.70;30.15;;;-0.20;99.90;;;;;;4186834;28;20033;-52
2021/12/15 02:57:51;;;;;;;33.97;31.00;;;-0.20;99.90;;;;;;4193461;28;20080;-53
2021/12/15 03:00:16;;;;;;;34.05;31.05;;;-0.30;99.90;;;;;;4194874;28;20028;-54
2021/12/15 03:04:46;;;;;;;38.22;34.55;;;-0.30;99.90;;;;;;4188213;28;20554;-52
2021/12/15 03:06:55;;;;;;;40.22;36.22;;;-0.40;99.90;;;;;;4194387;28;20455;-53
2021/12/15 03:15:59;;;;;;;46.65;42.97;;;-0.80;99.90;;;;;;4193892;28;20033;-54
2021/12/15 03:18:07;;;;;;;49.85;45.67;;;-1.10;99.90;;;;;;4191990;28;20043;-53
2021/12/15 03:20:11;;;;;;;46.95;43.72;;;-1.10;99.90;;;;;;4195181;28;20036;-53
2021/12/15 03:22:13;;;;;;;49.90;46.17;;;-1.20;99.90;;;;;;4194668;28;20086;-54
2021/12/15 03:24:20;;;;;;;46.97;42.88;;;-1.10;99.90;;;;;;4194795;28;20097;-53
2021/12/15 03:26:35;;;;;;;43.35;40.22;;;-1.00;99.90;;;;;;4192515;28;20040;-53
2021/12/15 03:35:46;;;;;;;37.63;34.72;;;-0.90;99.90;;;;;;4187884;28;20087;-53
2021/12/15 03:37:53;;;;;;;39.45;36.67;;;-0.80;99.90;;;;;;4190950;28;20065;-52
2021/12/15 03:40:14;;;;;;;40.65;37.50;;;-0.80;99.90;;;;;;4193008;28;20045;-52
2021/12/15 03:42:21;;;;;;;40.35;37.40;;;-0.90;99.90;;;;;;4194585;28;20040;-53
2021/12/15 03:44:23;;;;;;;46.42;42.85;;;-0.90;99.90;;;;;;4182552;28;20041;-51
2021/12/15 03:46:26;;;;;;;;;;;-1.00;99.90;;;;;;4194900;28;20037;-53
2021/12/15 03:48:33;;;;;;;45.17;41.50;;;-1.00;99.90;;;;;;4194600;28;19927;-53
2021/12/15 03:50:36;;;;;;;43.78;40.38;;;-1.00;99.90;;;;;;4193495;28;20036;-53
2021/12/15 03:52:38;;;;;;;45.88;42.33;;;-0.90;99.90;;;;;;4182104;28;20408;-52
2021/12/15 03:54:41;;;;;;;41.90;38.83;;;-0.90;99.90;;;;;;4190292;28;20039;-53
2021/12/15 03:56:44;;;;;;;42.88;39.55;;;-0.90;99.90;;;;;;4179235;28;20041;-53
2021/12/15 03:58:48;;;;;;;39.72;36.72;;;-0.90;99.90;;;;;;4193470;28;20098;-51
2021/12/15 04:00:59;;;;;;;35.50;33.10;;;-0.90;99.90;;;;;;4195022;28;20044;-52
2021/12/15 04:03:03;;;;;;;29.90;27.77;;;-0.80;99.90;;;;;;4194230;28;20036;-53
2021/12/15 04:05:07;;;;;;;31.67;29.38;;;-0.70;99.90;;;;;;4178243;28;20045;-53
2021/12/15 04:07:10;;;;;;;28.55;26.55;;;-0.60;99.90;;;;;;4193035;28;20036;-52
2021/12/15 04:09:14;;;;;;;31.08;28.65;;;-0.50;99.90;;;;;;4178319;28;20099;-52
2021/12/15 04:11:19;;;;;;;34.58;31.80;;;-0.60;99.90;;;;;;4192875;28;20048;-52
2021/12/15 04:13:22;;;;;;;37.90;35.00;;;-0.70;99.90;;;;;;4194521;28;20043;-52
2021/12/15 04:17:26;;;;;;;41.55;38.55;;;-0.60;99.90;;;;;;4194664;28;20244;-53
2021/12/15 04:19:30;;;;;;;43.55;40.17;;;-0.70;99.90;;;;;;4191740;28;20408;-53
2021/12/15 04:21:32;;;;;;;45.40;42.05;;;-0.90;99.90;;;;;;4194719;28;20052;-53
2021/12/15 04:23:35;;;;;;;46.42;42.85;;;-1.00;99.90;;;;;;4193057;28;20048;-52
2021/12/15 04:25:40;;;;;;;49.08;45.10;;;-1.10;99.90;;;;;;4194470;28;20508;-53
2021/12/15 04:28:01;;;;;;;43.72;40.70;;;-1.10;99.90;;;;;;4191953;28;20174;-52
2021/12/15 04:30:07;;;;;;;44.67;41.28;;;-1.10;99.90;;;;;;4190273;28;20044;-53
2021/12/15 04:32:17;;;;;;;41.60;38.65;;;-1.00;99.90;;;;;;4192291;28;20060;-53
2021/12/15 04:34:20;;;;;;;39.88;36.90;;;-0.90;99.90;;;;;;4194014;28;20032;-53
2021/12/15 04:36:25;;;;;;;29.33;27.95;;;-0.80;99.90;;;;;;4191715;28;20037;-52
2021/12/15 04:38:30;;;;;;;29.48;27.80;;;-0.70;99.90;;;;;;4193849;28;21376;-52
2021/12/15 04:40:33;;;;;;;32.70;30.83;;;-0.50;99.90;;;;;;4193237;28;20519;-53
2021/12/15 04:42:37;;;;;;;32.75;30.77;;;-0.50;99.90;;;;;;4193662;28;20036;-51
2021/12/15 04:44:40;;;;;;;35.97;33.53;;;-0.50;99.90;;;;;;4193129;28;20037;-53
2021/12/15 04:46:47;;;;;;;43.63;40.42;;;-0.70;99.90;;;;;;4193949;28;20036;-50
2021/12/15 04:48:49;;;;;;;43.38;40.15;;;-0.80;99.90;;;;;;4193453;28;20095;-53
2021/12/15 04:50:52;;;;;;;40.42;37.40;;;-0.80;99.90;;;;;;4184151;28;20080;-54
2021/12/15 04:52:54;;;;;;;41.83;38.88;;;-0.90;99.90;;;;;;4192324;28;20033;-53
2021/12/15 04:54:59;;;;;;;43.60;40.22;;;-0.80;99.90;;;;;;4193482;28;20044;-53
2021/12/15 04:57:01;;;;;;;44.75;41.42;;;-0.90;99.90;;;;;;4192143;28;20040;-52
2021/12/15 04:59:03;;;;;;;;;;;-0.90;99.90;;;;;;4188208;28;20426;-53
2021/12/15 05:01:09;;;;;;;43.55;40.58;;;-1.00;99.90;;;;;;4194010;28;19924;-53
2021/12/15 05:03:12;;;;;;;44.78;41.47;;;-1.10;99.90;;;;;;4194210;28;20036;-51
2021/12/15 05:05:14;;;;;;;;;;;-1.20;99.90;;;;;;4194538;28;20040;-54
2021/12/15 05:07:17;;;;;;;49.58;45.80;;;-1.20;99.90;;;;;;4192651;28;19925;-53
2021/12/15 05:09:20;;;;;;;46.80;43.20;;;-1.30;99.90;;;;;;4193248;28;20044;-52
2021/12/15 05:11:22;;;;;;;48.95;45.25;;;-1.30;99.90;;;;;;4193832;28;20040;-52
2021/12/15 05:13:25;;;;;;;59.95;53.78;;;-1.30;99.90;;;;;;4193698;28;20044;-53
2021/12/15 05:15:27;;;;;;;55.22;50.80;;;-1.30;99.90;;;;;;4194222;28;20678;-52
2021/12/15 05:17:30;;;;;;;53.05;48.70;;;-1.40;99.90;;;;;;4191522;28;20430;-53
2021/12/15 05:19:33;;;;;;;50.22;46.17;;;-1.40;99.90;;;;;;4191379;28;20187;-53
2021/12/15 05:21:35;;;;;;;46.95;43.30;;;-1.50;99.90;;;;;;4192663;28;20052;-53
2021/12/15 05:23:40;;;;;;;47.25;43.63;;;-1.50;99.90;;;;;;4193971;28;20040;-53
2021/12/15 05:25:42;;;;;;;48.40;45.15;;;-1.50;99.90;;;;;;4193855;28;20037;-53
2021/12/15 05:27:45;;;;;;;45.40;42.47;;;-1.40;99.90;;;;;;4193883;28;20094;-53
2021/12/15 05:29:48;;;;;;;48.58;44.70;;;-1.40;99.90;;;;;;4191185;28;20403;-54
2021/12/15 05:31:50;;;;;;;44.20;41.00;;;-1.30;99.90;;;;;;4197203;28;20044;-52
2021/12/15 05:33:52;;;;;;;47.97;44.55;;;-1.30;99.90;;;;;;4195604;28;21327;-53
2021/12/15 05:35:56;;;;;;;50.42;46.50;;;-1.30;99.90;;;;;;4196048;28;20028;-51
2021/12/15 05:37:58;;;;;;;57.83;52.85;;;-1.30;99.90;;;;;;4196830;28;20691;-53
2021/12/15 05:40:02;;;;;;;55.45;51.15;;;-1.40;99.90;;;;;;4192844;28;20048;-52
2021/12/15 05:42:05;;;;;;;53.03;48.83;;;-1.40;99.90;;;;;;4195928;28;20086;-52
2021/12/15 05:44:07;;;;;;;;;;;-1.50;99.90;;;;;;4187747;28;20040;-52
2021/12/15 05:46:09;;;;;;;47.13;43.85;;;-1.40;99.90;;;;;;4194282;28;19924;-51
2021/12/15 05:48:16;;;;;;;42.72;39.40;;;-1.40;99.90;;;;;;4192745;28;20052;-52
2021/12/15 05:50:19;;;;;;;35.92;34.22;;;-1.30;99.90;;;;;;4192071;28;20072;-52
2021/12/15 05:52:26;;;;;;;33.88;32.45;;;-1.30;99.90;;;;;;4196054;28;20459;-52
2021/12/15 05:54:29;;;;;;;34.50;32.95;;;-1.30;99.90;;;;;;4195701;28;20041;-53
2021/12/15 05:56:31;;;;;;;35.10;33.28;;;-1.30;99.90;;;;;;4196202;28;20060;-52
2021/12/15 05:58:33;;;;;;;22.83;21.92;;;-1.20;99.90;;;;;;4196161;28;20083;-53
2021/12/15 06:00:38;;;;;;;28.30;26.98;;;-1.10;99.90;;;;;;4195517;28;20151;-53
2021/12/15 06:02:42;;;;;;;29.77;28.27;;;-1.00;99.90;;;;;;4196562;28;20036;-52
2021/12/15 06:04:45;;;;;;;31.73;30.13;;;-1.00;99.90;;;;;;4196049;28;20032;-53
2021/12/15 06:06:48;;;;;;;33.15;31.48;;;-1.00;99.90;;;;;;4196588;28;20056;-53
2021/12/15 06:08:50;;;;;;;;;;;-1.00;99.90;;;;;;4196214;28;20052;-53
2021/12/15 06:10:52;;;;;;;81.85;69.97;;;-1.00;99.90;;;;;;4194108;28;19921;-51
2021/12/15 06:12:57;;;;;;;87.68;60.35;;;-1.00;99.90;;;;;;4197368;28;20033;-53
2021/12/15 06:14:59;;;;;;;82.93;73.82;;;-0.90;99.90;;;;;;4195991;28;20430;-56
2021/12/15 06:17:09;;;;;;;65.40;55.38;;;-0.90;99.90;;;;;;4195154;28;20128;-55
2021/12/15 06:19:11;;;;;;;41.67;38.05;;;-0.90;99.90;;;;;;4195841;28;20051;-55
2021/12/15 06:21:14;;;;;;;27.13;25.52;;;-1.00;99.90;;;;;;4177559;28;20087;-55
2021/12/15 06:23:19;;;;;;;23.73;22.42;;;-0.90;99.90;;;;;;4196238;28;20093;-55
2021/12/15 06:25:22;;;;;;;22.60;20.95;;;-0.80;99.90;;;;;;4176425;28;20045;-54
2021/12/15 06:27:25;;;;;;;35.67;33.15;;;-0.80;99.90;;;;;;4194304;28;20090;-56
2021/12/15 06:29:29;;;;;;;36.45;33.67;;;-0.90;99.90;;;;;;4195419;28;20095;-54
2021/12/15 06:31:31;;;;;;;45.97;41.92;;;-1.00;99.90;;;;;;4195705;28;20036;-55
2021/12/15 06:33:38;;;;;;;44.85;41.38;;;-1.10;99.90;;;;;;4194944;28;20062;-55
2021/12/15 06:35:40;;;;;;;40.72;38.05;;;-1.10;99.90;;;;;;4194050;28;20033;-55
2021/12/15 06:37:42;;;;;;;;;;;-1.10;99.90;;;;;;4194309;28;20439;-55
2021/12/15 06:39:44;;;;;;;37.50;35.00;;;-1.10;99.90;;;;;;4194522;28;20312;-55
2021/12/15 06:41:47;;;;;;;36.70;34.38;;;-1.10;99.90;;;;;;4194889;28;20106;-56
2021/12/15 06:43:55;;;;;;;36.28;33.63;;;-1.10;99.90;;;;;;4194985;28;20687;-55
2021/12/15 07:00:04;;;;;;;27.67;26.70;;;-1.00;99.90;;;;;;4191983;28;20078;-56
2021/12/15 07:02:06;;;;;;;33.28;31.67;;;-1.00;99.90;;;;;;4193764;28;20086;-55
2021/12/15 07:04:08;;;;;;;35.50;33.60;;;-1.00;99.90;;;;;;4193623;28;20044;-55
2021/12/15 07:06:11;;;;;;;37.33;35.15;;;-1.10;99.90;;;;;;4195094;28;20044;-55
2021/12/15 07:08:14;;;;;;;;;;;-1.20;99.90;;;;;;4194184;28;20044;-56
2021/12/15 07:10:20;;;;;;;38.67;36.67;;;-1.20;99.90;;;;;;4194069;28;19924;-55
2021/12/15 07:12:23;;;;;;;37.63;35.53;;;-1.20;99.90;;;;;;4194796;28;20063;-55
2021/12/15 07:14:25;;;;;;;36.45;34.55;;;-1.20;99.90;;;;;;4194524;28;20067;-55
2021/12/15 07:16:30;;;;;;;17.77;16.70;;;-1.20;99.90;;;;;;4192116;28;20036;-55
2021/12/15 07:20:49;;;;;;;16.98;15.90;;;-1.00;99.90;;;;;;4194887;28;20139;-55
2021/12/15 07:22:51;;;;;;;20.85;19.33;;;-1.00;99.90;;;;;;4184169;28;20048;-56
2021/12/15 07:24:53;;;;;;;20.38;18.48;;;-1.00;99.90;;;;;;4194494;28;20036;-56
2021/12/15 07:26:56;;;;;;;13.82;13.27;;;-1.00;99.90;;;;;;4196212;28;20086;-56
2021/12/15 07:28:58;;;;;;;14.23;13.65;;;-0.90;99.90;;;;;;4195672;28;20127;-55
2021/12/15 07:31:01;;;;;;;22.50;20.90;;;-0.90;99.90;;;;;;4193571;28;20569;-56
2021/12/15 07:33:06;;;;;;;38.63;34.67;;;-0.80;99.90;;;;;;4176848;28;20037;-55
2021/12/15 07:35:10;;;;;;;40.47;36.70;;;-0.80;99.90;;;;;;4194472;28;20830;-56
2021/12/15 07:37:12;;;;;;;36.15;33.17;;;-0.80;99.90;;;;;;4194282;28;20033;-55
2021/12/15 07:39:15;;;;;;;24.48;23.45;;;-0.80;99.90;;;;;;4193271;28;20063;-56
2021/12/15 07:41:28;;;;;;;25.40;24.17;;;-0.70;99.90;;;;;;4190849;28;20048;-55
2021/12/15 07:43:30;;;;;;;27.70;25.85;;;-0.70;99.90;;;;;;4192855;28;20451;-56
2021/12/15 07:45:40;;;;;;;46.38;42.38;;;-0.60;99.90;;;;;;4194259;28;20037;-55
2021/12/15 07:47:42;;;;;;;43.97;40.63;;;-0.70;99.90;;;;;;4192965;28;20037;-54
2021/12/15 07:49:44;;;;;;;39.95;36.97;;;-0.70;99.90;;;;;;4192485;28;20045;-56
2021/12/15 07:51:48;;;;;;;44.22;40.80;;;-0.90;99.90;;;;;;4193956;28;20048;-55
2021/12/15 07:53:50;;;;;;;54.78;50.25;;;-0.90;99.90;;;;;;4189771;28;20042;-56
2021/12/15 07:55:53;;;;;;;73.13;65.53;;;-0.80;99.90;;;;;;4194278;28;20094;-56
2021/12/15 07:57:56;;;;;;;64.50;58.40;;;-0.80;99.90;;;;;;4194537;28;20115;-54
2021/12/15 07:59:58;;;;;;;73.32;66.07;;;-0.70;99.90;;;;;;4170055;28;20041;-56
2021/12/15 08:02:00;;;;;;;50.60;46.35;;;-0.60;99.90;;;;;;4183265;28;20082;-55
2021/12/15 08:04:03;;;;;;;39.25;36.97;;;-0.50;99.90;;;;;;4194205;28;20119;-55
2021/12/15 08:06:06;;;;;;;40.22;37.70;;;-0.40;99.90;;;;;;4193994;28;20045;-55
2021/12/15 08:08:08;;;;;;;51.70;47.78;;;-0.30;99.90;;;;;;4192985;28;20045;-54
2021/12/15 08:10:11;;;;;;;;;;;-0.20;99.90;;;;;;4194565;28;20067;-56
2021/12/15 08:12:14;;;;;;;39.17;36.20;;;-0.10;99.90;;;;;;4193611;28;19924;-55
2021/12/15 08:14:16;;;;;;;34.08;32.05;;;0.00;99.90;;;;;;4192990;28;20493;-56
2021/12/15 08:16:19;;;;;;;33.50;31.80;;;0.00;99.90;;;;;;4192396;28;20484;-56
2021/12/15 08:18:22;;;;;;;26.75;24.58;;;0.00;99.90;;;;;;4191519;28;20588;-56
2021/12/15 08:20:29;;;;;;;38.88;35.30;;;0.00;99.90;;;;;;4173966;28;20045;-55
2021/12/15 08:22:32;;;;;;;42.75;34.22;;;0.00;99.90;;;;;;4194046;28;20041;-55
2021/12/15 08:24:34;;;;;;;32.20;28.80;;;0.00;99.90;;;;;;4193135;28;20036;-53
2021/12/15 08:26:36;;;;;;;32.05;28.85;;;0.00;99.90;;;;;;4194366;28;20404;-55
2021/12/15 08:28:38;;;;;;;27.83;25.50;;;0.00;99.90;;;;;;4194456;28;20044;-55
2021/12/15 08:30:43;;;;;;;31.63;28.67;;;0.00;99.90;;;;;;4194453;28;20040;-54
2021/12/15 08:32:47;;;;;;;35.83;32.33;;;0.00;99.90;;;;;;4192662;28;20048;-56
2021/12/15 08:34:49;;;;;;;47.25;43.17;;;0.00;99.90;;;;;;4194099;28;20102;-56
2021/12/15 08:36:54;;;;;;;28.52;26.70;;;0.10;99.90;;;;;;4191420;28;20045;-55
2021/12/15 08:38:56;;;;;;;18.98;17.38;;;0.20;99.90;;;;;;4193977;28;20029;-56
2021/12/15 08:41:00;;;;;;;28.88;26.67;;;0.30;99.90;;;;;;4193051;28;20475;-56
2021/12/15 08:43:03;;;;;;;26.27;23.80;;;0.50;99.90;;;;;;4193617;28;20098;-55
2021/12/15 08:45:07;;;;;;;15.93;15.02;;;0.60;99.90;;;;;;4194367;28;20476;-56
2021/12/15 08:47:09;;;;;;;12.27;11.77;;;0.70;99.90;;;;;;4193127;28;20045;-55
2021/12/15 08:49:18;;;;;;;14.43;13.73;;;1.00;99.90;;;;;;4175290;28;20090;-55
2021/12/15 08:51:25;;;;;;;15.02;14.00;;;1.20;99.90;;;;;;4193012;28;20052;-54
2021/12/15 08:53:27;;;;;;;15.63;14.40;;;1.40;99.90;;;;;;4194294;28;20041;-55
2021/12/15 08:55:30;;;;;;;18.52;17.15;;;1.50;99.90;;;;;;4193517;28;20040;-57
2021/12/15 08:57:32;;;;;;;31.67;24.38;;;1.70;99.90;;;;;;4192453;28;20033;-56
2021/12/15 08:59:35;;;;;;;26.25;22.40;;;1.90;99.90;;;;;;4193922;28;20106;-54
2021/12/15 09:01:38;;;;;;;20.70;18.60;;;2.00;99.90;;;;;;4194387;28;20052;-57
2021/12/15 09:03:43;;;;;;;26.35;20.70;;;1.90;99.90;;;;;;4193615;28;20489;-56
2021/12/15 09:05:45;;;;;;;23.63;21.02;;;1.90;99.90;;;;;;4194616;28;20121;-57
2021/12/15 09:07:52;;;;;;;23.70;21.27;;;2.00;99.90;;;;;;4196560;28;20561;-56
2021/12/15 09:09:54;;;;;;;22.63;20.30;;;2.20;99.90;;;;;;4178380;28;20040;-56
2021/12/15 09:11:56;;;;;;;18.02;16.48;;;2.30;99.90;;;;;;4197355;28;20565;-57
2021/12/15 09:14:00;;;;;;;18.80;17.25;;;2.30;99.90;;;;;;4196210;28;20475;-56
2021/12/15 09:16:09;;;;;;;16.20;14.73;;;2.40;99.90;;;;;;4197360;28;20032;-55
2021/12/15 09:18:13;;;;;;;10.70;10.10;;;2.60;99.90;;;;;;4190958;28;20598;-56
2021/12/15 09:20:18;;;;;;;18.67;16.63;;;2.60;99.90;;;;;;4192391;28;20086;-55
2021/12/15 09:22:20;;;;;;;17.25;15.57;;;2.80;99.90;;;;;;4195256;28;20036;-57
2021/12/15 09:24:23;;;;;;;17.58;16.10;;;2.90;99.90;;;;;;4196814;28;20053;-55
2021/12/15 09:26:25;;;;;;;;;;;3.20;99.90;;;;;;4196266;28;20374;-55
2021/12/15 09:28:30;;;;;;;12.85;11.93;;;3.30;99.90;;;;;;4197044;28;19920;-56
2021/12/15 09:30:34;;;;;;;11.80;11.18;;;3.40;99.90;;;;;;4197437;28;20032;-57
2021/12/15 09:32:36;;;;;;;10.65;10.20;;;3.60;99.90;;;;;;4196901;28;20037;-56
2021/12/15 09:34:39;;;;;;;28.45;22.85;;;3.60;99.90;;;;;;4191880;28;20564;-56
2021/12/15 09:36:41;;;;;;;18.10;16.38;;;3.60;99.90;;;;;;4196191;28;20040;-56
2021/12/15 09:38:45;;;;;;;16.33;14.93;;;4.00;99.90;;;;;;4196294;28;20542;-56
2021/12/15 09:40:51;;;;;;;6.28;6.07;;;4.10;99.90;;;;;;4196765;28;20457;-56
2021/12/15 09:42:55;;;;;;;14.05;12.88;;;4.30;99.90;;;;;;4196097;28;20492;-56
2021/12/15 09:45:05;;;;;;;22.50;20.02;;;4.50;99.90;;;;;;4178913;28;20041;-57
2021/12/15 10:03:35;;;;;;;50.33;35.25;;;5.40;99.90;;;;;;4194378;28;20040;-57
2021/12/15 10:18:06;;;;;;;41.35;28.92;;;5.80;99.90;;;;;;4190973;28;20041;-57
2021/12/15 10:20:15;;;;;;;35.75;29.15;;;6.00;99.90;;;;;;4193984;28;20558;-57
2021/12/15 10:22:38;;;;;;;22.67;19.65;;;6.10;99.90;;;;;;4195896;28;20036;-57
2021/12/15 10:24:54;;;;;;;26.85;23.77;;;6.30;99.90;;;;;;4195586;28;20488;-56
2021/12/15 10:26:59;;;;;;;16.40;14.82;;;6.30;99.90;;;;;;4196356;28;20036;-57
2021/12/15 10:29:07;;;;;;;11.70;10.80;;;6.30;99.90;;;;;;4194498;28;20040;-56
2021/12/15 10:31:13;;;;;;;21.42;16.02;;;6.70;99.90;;;;;;4194103;28;20071;-57
2021/12/15 10:33:31;;;;;;;14.80;13.15;;;7.20;99.90;;;;;;4194648;28;20151;-57
2021/12/15 10:35:53;;;;;;;9.80;9.02;;;7.60;99.90;;;;;;4195418;28;20032;-57
2021/12/15 10:38:16;;;;;;;10.27;9.43;;;7.60;99.90;;;;;;4196181;28;20032;-57
2021/12/15 10:40:22;;;;;;;10.77;9.90;;;7.40;99.90;;;;;;4194444;28;20337;-57
2021/12/15 10:42:30;;;;;;;8.95;8.38;;;7.60;99.90;;;;;;4196218;28;20040;-56
2021/12/15 10:44:32;;;;;;;10.75;9.68;;;7.50;99.90;;;;;;4193775;28;20046;-56
2021/12/15 10:46:39;;;;;;;6.10;5.90;;;7.80;99.90;;;;;;4191906;28;20033;-56
2021/12/15 10:48:59;;;;;;;5.18;5.00;;;7.90;99.90;;;;;;4195426;28;20039;-56
2021/12/15 10:51:30;;;;;;;24.50;16.15;;;8.10;99.90;;;;;;4195152;28;20514;-56
2021/12/15 10:53:35;;;;;;;23.05;16.52;;;8.30;99.90;;;;;;4179532;28;20037;-57
2021/12/15 10:55:39;;;;;;;41.97;35.83;;;8.30;99.90;;;;;;4194099;28;20028;-57
2021/12/15 10:57:44;;;;;;;37.63;30.27;;;8.40;99.90;;;;;;4194072;28;20036;-57
2021/12/15 10:59:50;;;;;;;31.52;25.33;;;8.40;99.90;;;;;;4195013;28;20818;-56
2021/12/15 11:02:20;;;;;;;24.80;18.42;;;8.50;99.90;;;;;;4194579;28;20119;-57
2021/12/15 11:04:35;;;;;;;11.10;10.23;;;8.60;99.90;;;;;;4191716;28;20036;-56
2021/12/15 11:06:37;;;;;;;6.05;5.75;;;8.90;99.90;;;;;;4194031;28;20032;-58
2021/12/15 11:08:40;;;;;;;6.50;6.30;;;9.00;99.90;;;;;;4190648;28;20036;-57
2021/12/15 11:10:42;;;;;;;7.18;6.57;;;9.20;99.90;;;;;;4195191;28;20573;-57
2021/12/15 11:12:48;;;;;;;4.00;3.83;;;9.40;99.90;;;;;;4193142;28;20047;-57
2021/12/15 11:14:59;;;;;;;39.60;25.63;;;9.60;99.90;;;;;;4193133;28;20389;-57
2021/12/15 11:17:07;;;;;;;13.48;12.05;;;9.70;99.90;;;;;;4192428;28;20420;-56
2021/12/15 11:19:50;;;;;;;10.65;9.65;;;9.70;99.90;;;;;;4189735;28;20485;-57
2021/12/15 11:21:52;;;;;;;1.67;1.60;;;9.90;99.90;;;;;;4191388;28;20029;-57
2021/12/15 11:23:55;;;;;;;2.10;2.00;;;10.20;99.90;;;;;;4186425;28;20040;-57
2021/12/15 11:26:08;;;;;;;2.78;2.67;;;10.60;99.90;;;;;;4192495;28;20082;-57
2021/12/15 11:28:21;;;;;;;7.88;7.47;;;10.70;99.90;;;;;;4192015;28;20043;-57
2021/12/15 11:30:35;;;;;;;2.55;2.45;;;10.70;99.90;;;;;;4190315;28;21476;-58
2021/12/15 11:32:46;;;;;;;4.47;4.28;;;10.80;99.90;;;;;;4182753;28;20625;-57
2021/12/15 11:35:01;;;;;;;8.75;8.23;;;10.80;99.90;;;;;;4192710;28;20064;-57
2021/12/15 11:37:04;;;;;;;6.60;6.03;;;10.90;99.90;;;;;;4192751;28;20071;-57
2021/12/15 11:39:06;;;;;;;;;;;11.00;99.90;;;;;;4191567;28;20040;-56
2021/12/15 11:41:15;;;;;;;2.35;2.35;;;11.20;99.90;;;;;;4191572;28;19935;-56
2021/12/15 11:43:28;;;;;;;3.90;3.80;;;11.50;99.90;;;;;;4186481;28;20386;-58
2021/12/15 11:45:31;;;;;;;;;;;12.30;99.90;;;;;;4191662;28;20044;-56
2021/12/15 11:47:33;;;;;;;2.38;2.28;;;12.50;99.90;;;;;;4175316;28;19971;-57
2021/12/15 11:49:37;;;;;;;2.55;2.45;;;12.60;99.90;;;;;;4189640;28;20048;-57
2021/12/15 11:51:53;;;;;;;5.53;5.22;;;12.50;98.70;;;;;;4190389;28;21768;-57
2021/12/15 11:53:55;;;;;;;6.88;6.68;;;12.30;99.70;;;;;;4191091;28;20040;-56
2021/12/15 11:56:14;;;;;;;6.15;5.80;;;12.20;99.90;;;;;;4189054;28;20071;-58
2021/12/15 11:58:29;;;;;;;9.60;8.40;;;12.50;99.90;;;;;;4183654;28;20036;-58
2021/12/15 12:00:32;;;;;;;9.82;9.02;;;12.50;99.90;;;;;;4175068;28;20041;-57
2021/12/15 12:02:42;;;;;;;4.07;3.88;;;12.60;99.90;;;;;;4188429;28;20036;-57
2021/12/15 12:04:47;;;;;;;24.35;16.77;;;12.90;99.90;;;;;;4191097;28;20044;-58